sensor_id;sensor_type;location;lat;lon;timestamp;temperature;humidity
29007;DHT22;16104;48.642;9.008;2023-03-13T00:02:32;11.10;58.90
29007;DHT22;16104;48.642;9.008;2023-03-13T00:07:28;11.10;59.00
29007;DHT22;16104;48.642;9.008;2023-03-13T00:12:24;11.10;59.00
29007;DHT22;16104;48.642;9.008;2023-03-13T00:17:19;11.10;59.00
29007;DHT22;16104;48.642;9.008;2023-03-13T00:22:15;11.10;59.10
29007;DHT22;16104;48.642;9.008;2023-03-13T00:27:10;11.20;59.00
29007;DHT22;16104;48.642;9.008;2023-03-13T00:32:06;11.20;59.00
29007;DHT22;16104;48.642;9.008;2023-03-13T00:37:01;11.20;58.90
29007;DHT22;16104;48.642;9.008;2023-03-13T00:41:57;11.30;59.00
29007;DHT22;16104;48.642;9.008;2023-03-13T00:46:52;11.30;58.90
29007;DHT22;16104;48.642;9.008;2023-03-13T00:51:48;11.30;58.90
29007;DHT22;16104;48.642;9.008;2023-03-13T00:56:43;11.40;58.90
29007;DHT22;16104;48.642;9.008;2023-03-13T02:02:46;11.70;58.30
29007;DHT22;16104;48.642;9.008;2023-03-13T02:07:47;11.70;58.40
29007;DHT22;16104;48.642;9.008;2023-03-13T02:12:44;11.70;58.40
29007;DHT22;16104;48.642;9.008;2023-03-13T03:03:29;12.00;59.10
29007;DHT22;16104;48.642;9.008;2023-03-13T03:08:24;12.00;59.30
29007;DHT22;16104;48.642;9.008;2023-03-13T03:13:20;12.00;59.40
29007;DHT22;16104;48.642;9.008;2023-03-13T04:04:04;12.40;61.90
29007;DHT22;16104;48.642;9.008;2023-03-13T04:09:21;12.50;62.30
29007;DHT22;16104;48.642;9.008;2023-03-13T04:14:17;12.60;63.50
29007;DHT22;16104;48.642;9.008;2023-03-13T04:19:12;12.70;63.60
29007;DHT22;16104;48.642;9.008;2023-03-13T04:24:08;12.80;64.50
29007;DHT22;16104;48.642;9.008;2023-03-13T04:29:03;12.80;64.00
29007;DHT22;16104;48.642;9.008;2023-03-13T04:34:00;12.90;64.50
29007;DHT22;16104;48.642;9.008;2023-03-13T04:38:56;13.00;64.20
29007;DHT22;16104;48.642;9.008;2023-03-13T04:43:51;13.00;64.30
29007;DHT22;16104;48.642;9.008;2023-03-13T04:48:47;13.00;64.50
29007;DHT22;16104;48.642;9.008;2023-03-13T04:53:42;13.10;64.90
29007;DHT22;16104;48.642;9.008;2023-03-13T04:58:37;13.10;64.60
29007;DHT22;16104;48.642;9.008;2023-03-13T05:03:33;13.10;64.70
29007;DHT22;16104;48.642;9.008;2023-03-13T05:08:28;13.10;64.90
29007;DHT22;16104;48.642;9.008;2023-03-13T05:13:24;13.20;64.60
29007;DHT22;16104;48.642;9.008;2023-03-13T05:18:19;13.20;64.60
29007;DHT22;16104;48.642;9.008;2023-03-13T05:23:15;13.20;64.40
29007;DHT22;16104;48.642;9.008;2023-03-13T05:28:10;13.20;64.10
29007;DHT22;16104;48.642;9.008;2023-03-13T05:33:06;13.30;64.30
29007;DHT22;16104;48.642;9.008;2023-03-13T05:38:01;13.30;64.20
29007;DHT22;16104;48.642;9.008;2023-03-13T05:42:57;13.30;64.00
29007;DHT22;16104;48.642;9.008;2023-03-13T05:47:53;13.40;64.00
29007;DHT22;16104;48.642;9.008;2023-03-13T05:52:49;13.40;63.90
29007;DHT22;16104;48.642;9.008;2023-03-13T05:57:45;13.50;63.90
29007;DHT22;16104;48.642;9.008;2023-03-13T06:02:42;13.50;64.10
29007;DHT22;16104;48.642;9.008;2023-03-13T06:07:37;13.50;64.10
29007;DHT22;16104;48.642;9.008;2023-03-13T06:12:33;13.60;64.10
29007;DHT22;16104;48.642;9.008;2023-03-13T06:17:28;13.60;64.10
29007;DHT22;16104;48.642;9.008;2023-03-13T06:22:24;13.60;64.00
29007;DHT22;16104;48.642;9.008;2023-03-13T06:27:19;13.70;64.40
29007;DHT22;16104;48.642;9.008;2023-03-13T06:32:15;13.70;64.20
29007;DHT22;16104;48.642;9.008;2023-03-13T06:37:10;13.80;64.40
29007;DHT22;16104;48.642;9.008;2023-03-13T06:42:06;13.80;64.40
29007;DHT22;16104;48.642;9.008;2023-03-13T06:47:02;13.80;64.50
29007;DHT22;16104;48.642;9.008;2023-03-13T06:51:57;13.90;64.30
29007;DHT22;16104;48.642;9.008;2023-03-13T06:56:53;13.90;64.10
29007;DHT22;16104;48.642;9.008;2023-03-13T07:01:48;14.00;64.50
29007;DHT22;16104;48.642;9.008;2023-03-13T07:06:44;14.00;64.10
29007;DHT22;16104;48.642;9.008;2023-03-13T07:11:39;14.10;64.30
29007;DHT22;16104;48.642;9.008;2023-03-13T07:16:35;14.10;64.30
29007;DHT22;16104;48.642;9.008;2023-03-13T07:21:31;14.10;64.40
29007;DHT22;16104;48.642;9.008;2023-03-13T07:26:26;14.10;64.30
29007;DHT22;16104;48.642;9.008;2023-03-13T07:31:22;14.20;64.50
29007;DHT22;16104;48.642;9.008;2023-03-13T07:36:21;14.20;64.50
29007;DHT22;16104;48.642;9.008;2023-03-13T07:41:18;14.30;64.60
29007;DHT22;16104;48.642;9.008;2023-03-13T07:46:16;14.30;64.50
29007;DHT22;16104;48.642;9.008;2023-03-13T07:51:17;14.40;64.50
29007;DHT22;16104;48.642;9.008;2023-03-13T07:56:15;14.50;64.40
29007;DHT22;16104;48.642;9.008;2023-03-13T08:01:16;14.50;64.20
29007;DHT22;16104;48.642;9.008;2023-03-13T08:06:12;14.60;64.40
29007;DHT22;16104;48.642;9.008;2023-03-13T08:11:10;14.60;64.00
29007;DHT22;16104;48.642;9.008;2023-03-13T08:21:09;14.70;64.00
29007;DHT22;16104;48.642;9.008;2023-03-13T08:26:07;14.80;63.90
29007;DHT22;16104;48.642;9.008;2023-03-13T08:31:14;14.90;63.70
29007;DHT22;16104;48.642;9.008;2023-03-13T08:36:27;15.00;63.80
29007;DHT22;16104;48.642;9.008;2023-03-13T08:41:25;15.10;63.60
29007;DHT22;16104;48.642;9.008;2023-03-13T08:46:23;15.10;63.20
29007;DHT22;16104;48.642;9.008;2023-03-13T08:51:23;15.20;63.10
29007;DHT22;16104;48.642;9.008;2023-03-13T08:56:21;15.20;62.90
29007;DHT22;16104;48.642;9.008;2023-03-13T09:01:18;15.30;63.00
29007;DHT22;16104;48.642;9.008;2023-03-13T09:06:14;15.30;62.80
29007;DHT22;16104;48.642;9.008;2023-03-13T09:11:12;15.40;62.70
29007;DHT22;16104;48.642;9.008;2023-03-13T09:16:13;15.50;62.30
29007;DHT22;16104;48.642;9.008;2023-03-13T09:21:12;15.60;62.10
29007;DHT22;16104;48.642;9.008;2023-03-13T09:26:08;15.70;61.90
29007;DHT22;16104;48.642;9.008;2023-03-13T09:31:09;15.70;61.60
29007;DHT22;16104;48.642;9.008;2023-03-13T09:36:05;15.80;61.50
29007;DHT22;16104;48.642;9.008;2023-03-13T09:46:17;16.00;61.40
29007;DHT22;16104;48.642;9.008;2023-03-13T09:51:18;16.10;61.00
29007;DHT22;16104;48.642;9.008;2023-03-13T09:56:24;16.30;60.80
29007;DHT22;16104;48.642;9.008;2023-03-13T10:01:28;16.50;60.90
29007;DHT22;16104;48.642;9.008;2023-03-13T10:06:26;16.70;59.80
29007;DHT22;16104;48.642;9.008;2023-03-13T10:11:27;16.90;59.70
29007;DHT22;16104;48.642;9.008;2023-03-13T10:16:34;17.00;59.40
29007;DHT22;16104;48.642;9.008;2023-03-13T10:21:33;17.20;58.70
29007;DHT22;16104;48.642;9.008;2023-03-13T10:26:34;17.40;58.70
29007;DHT22;16104;48.642;9.008;2023-03-13T10:31:34;17.60;58.30
29007;DHT22;16104;48.642;9.008;2023-03-13T10:36:42;17.80;58.10
29007;DHT22;16104;48.642;9.008;2023-03-13T10:41:38;18.10;57.50
29007;DHT22;16104;48.642;9.008;2023-03-13T10:46:39;18.40;57.40
29007;DHT22;16104;48.642;9.008;2023-03-13T10:51:37;18.70;57.20
29007;DHT22;16104;48.642;9.008;2023-03-13T10:56:33;18.90;56.90
29007;DHT22;16104;48.642;9.008;2023-03-13T11:01:29;19.20;56.10
29007;DHT22;16104;48.642;9.008;2023-03-13T11:06:34;19.40;55.90
29007;DHT22;16104;48.642;9.008;2023-03-13T11:11:30;19.70;54.90
29007;DHT22;16104;48.642;9.008;2023-03-13T11:16:44;19.90;55.00
29007;DHT22;16104;48.642;9.008;2023-03-13T11:27:03;20.40;53.60
29007;DHT22;16104;48.642;9.008;2023-03-13T11:32:04;20.50;52.50
29007;DHT22;16104;48.642;9.008;2023-03-13T11:37:14;20.80;52.50
29007;DHT22;16104;48.642;9.008;2023-03-13T11:42:38;21.00;52.20
29007;DHT22;16104;48.642;9.008;2023-03-13T11:52:52;21.40;50.70
29007;DHT22;16104;48.642;9.008;2023-03-13T12:08:33;21.80;49.40
29007;DHT22;16104;48.642;9.008;2023-03-13T12:13:43;22.00;48.60
29007;DHT22;16104;48.642;9.008;2023-03-13T12:18:43;22.20;47.40
29007;DHT22;16104;48.642;9.008;2023-03-13T12:33:57;22.80;47.40
29007;DHT22;16104;48.642;9.008;2023-03-13T12:39:16;23.00;47.70
29007;DHT22;16104;48.642;9.008;2023-03-13T12:44:19;23.20;45.60
29007;DHT22;16104;48.642;9.008;2023-03-13T12:59:52;23.60;43.70
29007;DHT22;16104;48.642;9.008;2023-03-13T13:04:50;23.70;43.50
29007;DHT22;16104;48.642;9.008;2023-03-13T13:15:25;23.80;42.50
29007;DHT22;16104;48.642;9.008;2023-03-13T13:20:39;23.90;41.80
29007;DHT22;16104;48.642;9.008;2023-03-13T13:25:35;23.90;43.10
29007;DHT22;16104;48.642;9.008;2023-03-13T13:30:31;24.00;43.90
29007;DHT22;16104;48.642;9.008;2023-03-13T13:35:34;24.20;42.80
29007;DHT22;16104;48.642;9.008;2023-03-13T13:40:30;24.10;42.00
29007;DHT22;16104;48.642;9.008;2023-03-13T13:45:31;24.00;42.30
29007;DHT22;16104;48.642;9.008;2023-03-13T13:50:28;23.90;42.40
29007;DHT22;16104;48.642;9.008;2023-03-13T14:00:25;23.90;42.90
29007;DHT22;16104;48.642;9.008;2023-03-13T14:05:22;24.00;42.00
29007;DHT22;16104;48.642;9.008;2023-03-13T14:10:33;24.00;41.80
29007;DHT22;16104;48.642;9.008;2023-03-13T14:15:31;24.10;41.10
29007;DHT22;16104;48.642;9.008;2023-03-13T14:20:36;24.10;40.00
29007;DHT22;16104;48.642;9.008;2023-03-13T14:25:44;24.00;39.80
29007;DHT22;16104;48.642;9.008;2023-03-13T14:30:42;24.00;40.10
29007;DHT22;16104;48.642;9.008;2023-03-13T14:35:39;24.10;40.70
29007;DHT22;16104;48.642;9.008;2023-03-13T14:40:36;24.30;40.10
29007;DHT22;16104;48.642;9.008;2023-03-13T14:45:35;24.50;40.20
29007;DHT22;16104;48.642;9.008;2023-03-13T14:50:33;24.70;40.00
29007;DHT22;16104;48.642;9.008;2023-03-13T14:55:36;24.80;39.00
29007;DHT22;16104;48.642;9.008;2023-03-13T15:00:39;24.90;38.60
29007;DHT22;16104;48.642;9.008;2023-03-13T15:05:35;24.90;39.00
29007;DHT22;16104;48.642;9.008;2023-03-13T15:10:31;25.00;39.50
29007;DHT22;16104;48.642;9.008;2023-03-13T15:15:27;25.10;38.70
29007;DHT22;16104;48.642;9.008;2023-03-13T15:20:23;25.20;38.60
29007;DHT22;16104;48.642;9.008;2023-03-13T15:25:21;25.20;39.20
29007;DHT22;16104;48.642;9.008;2023-03-13T15:30:19;25.30;38.50
29007;DHT22;16104;48.642;9.008;2023-03-13T15:35:28;25.40;38.90
29007;DHT22;16104;48.642;9.008;2023-03-13T15:40:25;25.50;37.90
29007;DHT22;16104;48.642;9.008;2023-03-13T15:45:22;25.50;37.90
29007;DHT22;16104;48.642;9.008;2023-03-13T15:50:18;25.40;38.30
29007;DHT22;16104;48.642;9.008;2023-03-13T15:55:14;25.40;38.20
29007;DHT22;16104;48.642;9.008;2023-03-13T16:00:28;25.20;38.30
29007;DHT22;16104;48.642;9.008;2023-03-13T16:05:23;25.10;37.90
29007;DHT22;16104;48.642;9.008;2023-03-13T16:10:23;25.00;38.90
29007;DHT22;16104;48.642;9.008;2023-03-13T16:15:19;24.90;39.30
29007;DHT22;16104;48.642;9.008;2023-03-13T16:20:18;24.80;39.90
29007;DHT22;16104;48.642;9.008;2023-03-13T16:25:15;24.80;39.50
29007;DHT22;16104;48.642;9.008;2023-03-13T16:30:16;24.60;39.70
29007;DHT22;16104;48.642;9.008;2023-03-13T16:35:12;24.40;39.70
29007;DHT22;16104;48.642;9.008;2023-03-13T16:40:14;24.20;39.80
29007;DHT22;16104;48.642;9.008;2023-03-13T16:45:11;24.00;39.80
29007;DHT22;16104;48.642;9.008;2023-03-13T16:50:21;23.80;40.20
29007;DHT22;16104;48.642;9.008;2023-03-13T16:55:18;23.60;40.50
29007;DHT22;16104;48.642;9.008;2023-03-13T17:00:20;23.40;40.80
29007;DHT22;16104;48.642;9.008;2023-03-13T17:05:15;23.20;41.10
29007;DHT22;16104;48.642;9.008;2023-03-13T17:10:19;23.00;41.40
29007;DHT22;16104;48.642;9.008;2023-03-13T17:15:16;22.80;41.70
29007;DHT22;16104;48.642;9.008;2023-03-13T17:20:13;22.70;42.00
29007;DHT22;16104;48.642;9.008;2023-03-13T17:25:09;22.50;42.20
29007;DHT22;16104;48.642;9.008;2023-03-13T17:30:26;22.40;42.40
29007;DHT22;16104;48.642;9.008;2023-03-13T17:35:22;22.20;43.20
29007;DHT22;16104;48.642;9.008;2023-03-13T17:40:20;22.10;43.20
29007;DHT22;16104;48.642;9.008;2023-03-13T17:45:17;22.00;43.40
29007;DHT22;16104;48.642;9.008;2023-03-13T17:50:24;21.90;43.50
29007;DHT22;16104;48.642;9.008;2023-03-13T17:55:23;21.70;43.80
29007;DHT22;16104;48.642;9.008;2023-03-13T18:00:23;21.60;43.90
29007;DHT22;16104;48.642;9.008;2023-03-13T18:05:20;21.50;44.10
29007;DHT22;16104;48.642;9.008;2023-03-13T18:15:17;21.30;44.50
29007;DHT22;16104;48.642;9.008;2023-03-13T18:20:16;21.20;44.70
29007;DHT22;16104;48.642;9.008;2023-03-13T18:25:13;21.10;44.90
29007;DHT22;16104;48.642;9.008;2023-03-13T18:30:17;21.00;45.10
29007;DHT22;16104;48.642;9.008;2023-03-13T18:35:13;20.90;45.40
29007;DHT22;16104;48.642;9.008;2023-03-13T18:40:25;20.80;45.50
29007;DHT22;16104;48.642;9.008;2023-03-13T18:45:23;20.60;47.10
29007;DHT22;16104;48.642;9.008;2023-03-13T18:50:28;20.30;48.60
29007;DHT22;16104;48.642;9.008;2023-03-13T18:55:26;19.80;49.70
29007;DHT22;16104;48.642;9.008;2023-03-13T19:00:25;19.40;50.10
29007;DHT22;16104;48.642;9.008;2023-03-13T19:05:21;19.00;51.60
29007;DHT22;16104;48.642;9.008;2023-03-13T19:10:22;18.70;51.90
29007;DHT22;16104;48.642;9.008;2023-03-13T19:15:18;18.50;53.20
29007;DHT22;16104;48.642;9.008;2023-03-13T19:20:20;18.30;53.00
29007;DHT22;16104;48.642;9.008;2023-03-13T19:25:16;18.10;54.00
29007;DHT22;16104;48.642;9.008;2023-03-13T19:30:22;17.90;53.90
29007;DHT22;16104;48.642;9.008;2023-03-13T19:35:18;17.80;55.10
29007;DHT22;16104;48.642;9.008;2023-03-13T19:40:21;17.60;54.80
29007;DHT22;16104;48.642;9.008;2023-03-13T19:45:17;17.50;56.20
29007;DHT22;16104;48.642;9.008;2023-03-13T19:50:20;17.30;55.50
29007;DHT22;16104;48.642;9.008;2023-03-13T19:55:16;17.20;56.80
29007;DHT22;16104;48.642;9.008;2023-03-13T20:00:23;17.10;56.50
29007;DHT22;16104;48.642;9.008;2023-03-13T20:05:19;16.90;57.90
29007;DHT22;16104;48.642;9.008;2023-03-13T20:10:15;16.80;57.10
29007;DHT22;16104;48.642;9.008;2023-03-13T20:15:11;16.60;57.00
29007;DHT22;16104;48.642;9.008;2023-03-13T20:20:07;16.40;57.50
29007;DHT22;16104;48.642;9.008;2023-03-13T20:25:03;16.20;57.90
29007;DHT22;16104;48.642;9.008;2023-03-13T20:29:59;16.00;56.80
29007;DHT22;16104;48.642;9.008;2023-03-13T20:34:55;15.70;56.10
29007;DHT22;16104;48.642;9.008;2023-03-13T20:39:50;15.40;56.10
29007;DHT22;16104;48.642;9.008;2023-03-13T20:44:45;15.10;56.50
29007;DHT22;16104;48.642;9.008;2023-03-13T20:49:41;14.80;56.90
29007;DHT22;16104;48.642;9.008;2023-03-13T20:54:37;14.60;57.40
29007;DHT22;16104;48.642;9.008;2023-03-13T20:59:33;14.50;57.80
29007;DHT22;16104;48.642;9.008;2023-03-13T21:04:28;14.40;58.40
29007;DHT22;16104;48.642;9.008;2023-03-13T21:09:24;14.30;58.80
29007;DHT22;16104;48.642;9.008;2023-03-13T21:14:19;14.20;59.20
29007;DHT22;16104;48.642;9.008;2023-03-13T21:19:15;14.10;59.80
29007;DHT22;16104;48.642;9.008;2023-03-13T21:24:10;14.10;59.80
29007;DHT22;16104;48.642;9.008;2023-03-13T21:29:06;14.00;59.80
29007;DHT22;16104;48.642;9.008;2023-03-13T21:34:03;14.00;60.00
29007;DHT22;16104;48.642;9.008;2023-03-13T21:38:59;13.90;60.30
29007;DHT22;16104;48.642;9.008;2023-03-13T21:43:54;13.80;60.30
29007;DHT22;16104;48.642;9.008;2023-03-13T21:48:50;13.80;60.50
29007;DHT22;16104;48.642;9.008;2023-03-13T21:53:45;13.70;60.50
29007;DHT22;16104;48.642;9.008;2023-03-13T21:58:42;13.70;60.90
29007;DHT22;16104;48.642;9.008;2023-03-13T22:03:38;13.60;61.20
29007;DHT22;16104;48.642;9.008;2023-03-13T22:08:33;13.50;61.40
29007;DHT22;16104;48.642;9.008;2023-03-13T22:13:29;13.50;61.70
29007;DHT22;16104;48.642;9.008;2023-03-13T22:18:25;13.50;61.80
29007;DHT22;16104;48.642;9.008;2023-03-13T22:23:20;13.50;62.10
29007;DHT22;16104;48.642;9.008;2023-03-13T22:28:16;13.40;62.00
29007;DHT22;16104;48.642;9.008;2023-03-13T22:33:11;13.40;62.20
29007;DHT22;16104;48.642;9.008;2023-03-13T22:38:07;13.30;62.20
29007;DHT22;16104;48.642;9.008;2023-03-13T22:43:02;13.30;62.40
29007;DHT22;16104;48.642;9.008;2023-03-13T22:47:58;13.30;62.50
29007;DHT22;16104;48.642;9.008;2023-03-13T22:53:00;13.20;62.60
29007;DHT22;16104;48.642;9.008;2023-03-13T22:57:56;13.20;62.90
29007;DHT22;16104;48.642;9.008;2023-03-13T23:02:51;13.20;62.90
29007;DHT22;16104;48.642;9.008;2023-03-13T23:07:49;13.10;63.20
29007;DHT22;16104;48.642;9.008;2023-03-13T23:12:45;13.10;63.50
29007;DHT22;16104;48.642;9.008;2023-03-13T23:17:40;13.00;63.60
29007;DHT22;16104;48.642;9.008;2023-03-13T23:22:36;13.00;64.20
29007;DHT22;16104;48.642;9.008;2023-03-13T23:27:31;12.90;64.30
29007;DHT22;16104;48.642;9.008;2023-03-13T23:32:27;12.90;64.70
29007;DHT22;16104;48.642;9.008;2023-03-13T23:37:23;12.80;64.70
29007;DHT22;16104;48.642;9.008;2023-03-13T23:42:19;12.80;64.80
29007;DHT22;16104;48.642;9.008;2023-03-13T23:47:14;12.80;65.20
29007;DHT22;16104;48.642;9.008;2023-03-13T23:52:10;12.70;65.30
29007;DHT22;16104;48.642;9.008;2023-03-13T23:57:05;12.70;65.60
